Terminal Aerodrome Forecast
Issued by NWS Grand Junction, CO

Home | Current Version | Previous Version | Text Only | Print | Product List | Glossary On
Versions: 1 2 3 4 5 6 7 8 9 10 11 12 13 14 15 16 17 18 19 20 21 22 23 24 25 26 27
000
FTUS45 KGJT 302338
TAFGJT
TAF
KGJT 302338Z 3100/3124 28008KT P6SM FEW200
     FM310300 06005KT P6SM SKC
     FM310600 11006KT P6SM SKC
     FM311400 15008KT P6SM SCT200
     FM311900 29010KT P6SM SCT120 BKN200=

USA.gov is the U.S. government's official web portal to all federal, state and local government web resources and services.